sensor_id;sensor_type;location;lat;lon;timestamp;P1;durP1;ratioP1;P2;durP2;ratioP2
15764;SDS011;7983;50.744;7.086;2022-11-15T00:02:11;4.88;;;3.90;;
15764;SDS011;7983;50.744;7.086;2022-11-15T00:04:37;4.53;;;3.97;;
15764;SDS011;7983;50.744;7.086;2022-11-15T00:07:07;5.50;;;4.47;;
15764;SDS011;7983;50.744;7.086;2022-11-15T00:09:35;4.72;;;3.67;;
15764;SDS011;7983;50.744;7.086;2022-11-15T00:12:02;4.68;;;3.65;;
15764;SDS011;7983;50.744;7.086;2022-11-15T00:14:31;5.20;;;4.03;;
15764;SDS011;7983;50.744;7.086;2022-11-15T00:16:56;5.32;;;4.13;;
15764;SDS011;7983;50.744;7.086;2022-11-15T00:19:24;4.53;;;3.63;;
15764;SDS011;7983;50.744;7.086;2022-11-15T00:21:54;4.75;;;3.97;;
15764;SDS011;7983;50.744;7.086;2022-11-15T00:24:22;6.05;;;3.90;;
15764;SDS011;7983;50.744;7.086;2022-11-15T00:26:48;5.63;;;4.45;;
15764;SDS011;7983;50.744;7.086;2022-11-15T00:29:16;5.85;;;4.18;;
15764;SDS011;7983;50.744;7.086;2022-11-15T00:31:44;6.18;;;4.65;;
15764;SDS011;7983;50.744;7.086;2022-11-15T00:34:09;6.85;;;4.78;;
15764;SDS011;7983;50.744;7.086;2022-11-15T00:36:38;5.85;;;4.28;;
15764;SDS011;7983;50.744;7.086;2022-11-15T00:39:06;4.88;;;4.00;;
15764;SDS011;7983;50.744;7.086;2022-11-15T00:41:34;5.50;;;4.10;;
15764;SDS011;7983;50.744;7.086;2022-11-15T00:44:02;4.82;;;4.20;;
15764;SDS011;7983;50.744;7.086;2022-11-15T00:46:28;5.85;;;4.20;;
15764;SDS011;7983;50.744;7.086;2022-11-15T00:48:53;6.40;;;4.07;;
15764;SDS011;7983;50.744;7.086;2022-11-15T00:51:19;5.75;;;4.32;;
15764;SDS011;7983;50.744;7.086;2022-11-15T00:53:47;6.63;;;4.20;;
15764;SDS011;7983;50.744;7.086;2022-11-15T00:56:12;6.65;;;4.95;;
15764;SDS011;7983;50.744;7.086;2022-11-15T00:58:38;5.00;;;4.30;;
15764;SDS011;7983;50.744;7.086;2022-11-15T01:01:11;4.82;;;4.20;;
15764;SDS011;7983;50.744;7.086;2022-11-15T01:03:42;4.90;;;3.83;;
15764;SDS011;7983;50.744;7.086;2022-11-15T01:06:08;5.72;;;4.15;;
15764;SDS011;7983;50.744;7.086;2022-11-15T01:08:34;5.40;;;4.45;;
15764;SDS011;7983;50.744;7.086;2022-11-15T01:11:03;4.95;;;3.92;;
15764;SDS011;7983;50.744;7.086;2022-11-15T01:13:34;5.10;;;4.20;;
15764;SDS011;7983;50.744;7.086;2022-11-15T01:16:07;5.95;;;4.05;;
15764;SDS011;7983;50.744;7.086;2022-11-15T01:18:41;6.03;;;3.90;;
15764;SDS011;7983;50.744;7.086;2022-11-15T01:21:17;4.57;;;4.07;;
15764;SDS011;7983;50.744;7.086;2022-11-15T01:23:46;4.57;;;3.65;;
15764;SDS011;7983;50.744;7.086;2022-11-15T01:26:13;5.60;;;4.07;;
15764;SDS011;7983;50.744;7.086;2022-11-15T01:28:40;4.53;;;3.53;;
15764;SDS011;7983;50.744;7.086;2022-11-15T01:31:08;5.72;;;4.30;;
15764;SDS011;7983;50.744;7.086;2022-11-15T01:33:39;4.78;;;3.92;;
15764;SDS011;7983;50.744;7.086;2022-11-15T01:36:06;5.40;;;4.18;;
15764;SDS011;7983;50.744;7.086;2022-11-15T01:38:33;5.78;;;4.30;;
15764;SDS011;7983;50.744;7.086;2022-11-15T01:40:59;4.97;;;4.05;;
15764;SDS011;7983;50.744;7.086;2022-11-15T01:46:04;5.35;;;4.00;;
15764;SDS011;7983;50.744;7.086;2022-11-15T01:48:50;4.20;;;3.63;;
15764;SDS011;7983;50.744;7.086;2022-11-15T01:51:20;4.70;;;4.00;;
15764;SDS011;7983;50.744;7.086;2022-11-15T01:53:48;4.00;;;3.45;;
15764;SDS011;7983;50.744;7.086;2022-11-15T01:56:17;5.18;;;4.00;;
15764;SDS011;7983;50.744;7.086;2022-11-15T01:58:46;5.03;;;3.60;;
15764;SDS011;7983;50.744;7.086;2022-11-15T02:01:13;5.15;;;3.90;;
15764;SDS011;7983;50.744;7.086;2022-11-15T02:03:56;6.30;;;4.00;;
15764;SDS011;7983;50.744;7.086;2022-11-15T02:06:23;4.75;;;3.83;;
15764;SDS011;7983;50.744;7.086;2022-11-15T02:08:49;5.53;;;3.92;;
15764;SDS011;7983;50.744;7.086;2022-11-15T02:11:15;5.85;;;3.90;;
15764;SDS011;7983;50.744;7.086;2022-11-15T02:13:41;4.00;;;3.47;;
15764;SDS011;7983;50.744;7.086;2022-11-15T02:16:14;4.13;;;3.72;;
15764;SDS011;7983;50.744;7.086;2022-11-15T02:19:02;4.28;;;3.40;;
15764;SDS011;7983;50.744;7.086;2022-11-15T02:36:06;4.32;;;3.60;;
15764;SDS011;7983;50.744;7.086;2022-11-15T02:38:49;3.85;;;3.30;;
15764;SDS011;7983;50.744;7.086;2022-11-15T02:46:58;3.47;;;3.10;;
15764;SDS011;7983;50.744;7.086;2022-11-15T02:49:42;3.70;;;3.08;;
15764;SDS011;7983;50.744;7.086;2022-11-15T02:52:09;4.90;;;3.05;;
15764;SDS011;7983;50.744;7.086;2022-11-15T02:54:41;4.18;;;3.17;;
15764;SDS011;7983;50.744;7.086;2022-11-15T02:57:10;3.67;;;3.10;;
15764;SDS011;7983;50.744;7.086;2022-11-15T02:59:43;4.03;;;3.20;;
15764;SDS011;7983;50.744;7.086;2022-11-15T03:05:09;4.07;;;3.28;;
15764;SDS011;7983;50.744;7.086;2022-11-15T03:10:27;3.72;;;3.20;;
15764;SDS011;7983;50.744;7.086;2022-11-15T03:13:21;3.60;;;3.17;;
15764;SDS011;7983;50.744;7.086;2022-11-15T03:15:56;4.18;;;3.13;;
15764;SDS011;7983;50.744;7.086;2022-11-15T03:18:37;4.45;;;3.58;;
15764;SDS011;7983;50.744;7.086;2022-11-15T03:21:11;4.30;;;3.78;;
15764;SDS011;7983;50.744;7.086;2022-11-15T03:23:39;4.10;;;3.60;;
15764;SDS011;7983;50.744;7.086;2022-11-15T03:26:07;4.60;;;3.30;;
15764;SDS011;7983;50.744;7.086;2022-11-15T03:28:43;5.15;;;3.53;;
15764;SDS011;7983;50.744;7.086;2022-11-15T03:31:22;4.55;;;3.58;;
15764;SDS011;7983;50.744;7.086;2022-11-15T03:34:10;3.72;;;3.33;;
15764;SDS011;7983;50.744;7.086;2022-11-15T03:36:59;4.55;;;3.38;;
15764;SDS011;7983;50.744;7.086;2022-11-15T03:39:26;3.70;;;3.35;;
15764;SDS011;7983;50.744;7.086;2022-11-15T03:47:23;4.35;;;3.40;;
15764;SDS011;7983;50.744;7.086;2022-11-15T03:50:01;3.80;;;3.40;;
15764;SDS011;7983;50.744;7.086;2022-11-15T03:52:32;4.35;;;3.40;;
15764;SDS011;7983;50.744;7.086;2022-11-15T03:54:59;3.65;;;3.22;;
15764;SDS011;7983;50.744;7.086;2022-11-15T03:57:26;3.33;;;2.97;;
15764;SDS011;7983;50.744;7.086;2022-11-15T03:59:52;5.10;;;3.33;;
15764;SDS011;7983;50.744;7.086;2022-11-15T04:02:18;3.95;;;3.45;;
15764;SDS011;7983;50.744;7.086;2022-11-15T04:04:43;3.63;;;3.20;;
15764;SDS011;7983;50.744;7.086;2022-11-15T04:07:09;4.82;;;4.10;;
15764;SDS011;7983;50.744;7.086;2022-11-15T04:09:35;5.30;;;4.10;;
15764;SDS011;7983;50.744;7.086;2022-11-15T04:12:23;4.07;;;3.33;;
15764;SDS011;7983;50.744;7.086;2022-11-15T04:15:08;3.65;;;3.33;;
15764;SDS011;7983;50.744;7.086;2022-11-15T04:20:23;3.45;;;3.15;;
15764;SDS011;7983;50.744;7.086;2022-11-15T04:23:13;3.45;;;3.15;;
15764;SDS011;7983;50.744;7.086;2022-11-15T04:25:59;5.10;;;3.70;;
15764;SDS011;7983;50.744;7.086;2022-11-15T04:28:29;3.95;;;3.28;;
15764;SDS011;7983;50.744;7.086;2022-11-15T04:30:55;4.30;;;3.63;;
15764;SDS011;7983;50.744;7.086;2022-11-15T04:33:21;3.63;;;3.30;;
15764;SDS011;7983;50.744;7.086;2022-11-15T04:35:51;4.03;;;3.60;;
15764;SDS011;7983;50.744;7.086;2022-11-15T04:38:48;4.05;;;3.60;;
15764;SDS011;7983;50.744;7.086;2022-11-15T04:41:13;3.60;;;3.30;;
15764;SDS011;7983;50.744;7.086;2022-11-15T04:43:42;3.30;;;3.00;;
15764;SDS011;7983;50.744;7.086;2022-11-15T04:46:09;3.63;;;2.95;;
15764;SDS011;7983;50.744;7.086;2022-11-15T04:48:38;5.57;;;3.47;;
15764;SDS011;7983;50.744;7.086;2022-11-15T04:51:05;4.20;;;3.45;;
15764;SDS011;7983;50.744;7.086;2022-11-15T04:53:31;3.70;;;3.25;;
15764;SDS011;7983;50.744;7.086;2022-11-15T04:55:57;3.97;;;3.08;;
15764;SDS011;7983;50.744;7.086;2022-11-15T04:58:25;3.60;;;3.30;;
15764;SDS011;7983;50.744;7.086;2022-11-15T05:00:51;3.38;;;2.97;;
15764;SDS011;7983;50.744;7.086;2022-11-15T05:03:16;3.08;;;2.63;;
15764;SDS011;7983;50.744;7.086;2022-11-15T05:06:00;4.35;;;2.97;;
15764;SDS011;7983;50.744;7.086;2022-11-15T05:08:26;3.17;;;2.85;;
15764;SDS011;7983;50.744;7.086;2022-11-15T05:10:52;3.22;;;2.75;;
15764;SDS011;7983;50.744;7.086;2022-11-15T05:13:20;3.80;;;3.03;;
15764;SDS011;7983;50.744;7.086;2022-11-15T05:15:48;3.35;;;3.05;;
15764;SDS011;7983;50.744;7.086;2022-11-15T05:18:14;3.75;;;3.35;;
15764;SDS011;7983;50.744;7.086;2022-11-15T05:20:39;3.08;;;2.78;;
15764;SDS011;7983;50.744;7.086;2022-11-15T05:23:05;2.90;;;2.60;;
15764;SDS011;7983;50.744;7.086;2022-11-15T05:25:33;5.05;;;2.75;;
15764;SDS011;7983;50.744;7.086;2022-11-15T05:28:01;4.20;;;2.70;;
15764;SDS011;7983;50.744;7.086;2022-11-15T05:30:26;3.45;;;2.70;;
15764;SDS011;7983;50.744;7.086;2022-11-15T05:32:52;2.92;;;2.55;;
15764;SDS011;7983;50.744;7.086;2022-11-15T05:35:26;3.80;;;2.60;;
15764;SDS011;7983;50.744;7.086;2022-11-15T05:37:56;3.13;;;2.60;;
15764;SDS011;7983;50.744;7.086;2022-11-15T05:40:23;3.25;;;2.60;;
15764;SDS011;7983;50.744;7.086;2022-11-15T05:42:49;3.60;;;2.22;;
15764;SDS011;7983;50.744;7.086;2022-11-15T05:45:15;2.80;;;2.28;;
15764;SDS011;7983;50.744;7.086;2022-11-15T05:47:41;4.10;;;2.70;;
15764;SDS011;7983;50.744;7.086;2022-11-15T05:50:07;2.58;;;2.15;;
15764;SDS011;7983;50.744;7.086;2022-11-15T05:52:40;2.85;;;2.47;;
15764;SDS011;7983;50.744;7.086;2022-11-15T05:55:08;3.08;;;2.30;;
15764;SDS011;7983;50.744;7.086;2022-11-15T05:57:34;3.33;;;2.40;;
15764;SDS011;7983;50.744;7.086;2022-11-15T06:00:01;2.80;;;2.33;;
15764;SDS011;7983;50.744;7.086;2022-11-15T06:02:27;3.80;;;2.20;;
15764;SDS011;7983;50.744;7.086;2022-11-15T06:04:53;3.30;;;2.28;;
15764;SDS011;7983;50.744;7.086;2022-11-15T06:07:21;2.83;;;2.45;;
15764;SDS011;7983;50.744;7.086;2022-11-15T06:09:47;3.17;;;2.20;;
15764;SDS011;7983;50.744;7.086;2022-11-15T06:12:15;2.63;;;2.30;;
15764;SDS011;7983;50.744;7.086;2022-11-15T06:14:43;4.53;;;2.40;;
15764;SDS011;7983;50.744;7.086;2022-11-15T06:17:10;2.78;;;2.38;;
15764;SDS011;7983;50.744;7.086;2022-11-15T06:19:36;2.60;;;2.30;;
15764;SDS011;7983;50.744;7.086;2022-11-15T06:22:02;2.08;;;1.88;;
15764;SDS011;7983;50.744;7.086;2022-11-15T06:24:30;2.70;;;2.38;;
15764;SDS011;7983;50.744;7.086;2022-11-15T06:26:58;3.00;;;2.40;;
15764;SDS011;7983;50.744;7.086;2022-11-15T06:29:26;2.58;;;2.10;;
15764;SDS011;7983;50.744;7.086;2022-11-15T06:31:52;2.30;;;2.00;;
15764;SDS011;7983;50.744;7.086;2022-11-15T06:34:18;3.42;;;1.88;;
15764;SDS011;7983;50.744;7.086;2022-11-15T06:36:51;1.80;;;1.70;;
15764;SDS011;7983;50.744;7.086;2022-11-15T06:39:18;2.20;;;1.80;;
15764;SDS011;7983;50.744;7.086;2022-11-15T06:41:44;2.13;;;1.92;;
15764;SDS011;7983;50.744;7.086;2022-11-15T06:44:12;2.97;;;2.00;;
15764;SDS011;7983;50.744;7.086;2022-11-15T06:46:41;3.17;;;1.85;;
15764;SDS011;7983;50.744;7.086;2022-11-15T06:49:09;2.00;;;1.80;;
15764;SDS011;7983;50.744;7.086;2022-11-15T06:51:37;2.10;;;1.73;;
15764;SDS011;7983;50.744;7.086;2022-11-15T06:54:03;2.70;;;1.90;;
15764;SDS011;7983;50.744;7.086;2022-11-15T06:56:28;2.15;;;1.92;;
15764;SDS011;7983;50.744;7.086;2022-11-15T06:58:56;2.30;;;1.98;;
15764;SDS011;7983;50.744;7.086;2022-11-15T07:01:22;2.03;;;1.77;;
15764;SDS011;7983;50.744;7.086;2022-11-15T07:03:50;2.88;;;1.67;;
15764;SDS011;7983;50.744;7.086;2022-11-15T07:06:16;2.67;;;1.70;;
15764;SDS011;7983;50.744;7.086;2022-11-15T07:08:41;2.00;;;1.80;;
15764;SDS011;7983;50.744;7.086;2022-11-15T07:11:07;2.28;;;1.70;;
15764;SDS011;7983;50.744;7.086;2022-11-15T07:13:34;2.10;;;1.67;;
15764;SDS011;7983;50.744;7.086;2022-11-15T07:16:04;2.58;;;1.85;;
15764;SDS011;7983;50.744;7.086;2022-11-15T07:18:30;2.17;;;1.67;;
15764;SDS011;7983;50.744;7.086;2022-11-15T07:21:02;6.97;;;1.90;;
15764;SDS011;7983;50.744;7.086;2022-11-15T07:23:31;2.05;;;1.60;;
15764;SDS011;7983;50.744;7.086;2022-11-15T07:25:57;1.90;;;1.60;;
15764;SDS011;7983;50.744;7.086;2022-11-15T07:28:24;2.05;;;1.80;;
15764;SDS011;7983;50.744;7.086;2022-11-15T07:30:53;2.28;;;1.63;;
15764;SDS011;7983;50.744;7.086;2022-11-15T07:33:21;2.95;;;1.63;;
15764;SDS011;7983;50.744;7.086;2022-11-15T07:35:49;2.95;;;1.95;;
15764;SDS011;7983;50.744;7.086;2022-11-15T07:38:15;2.15;;;1.60;;
15764;SDS011;7983;50.744;7.086;2022-11-15T07:40:46;2.47;;;1.55;;
15764;SDS011;7983;50.744;7.086;2022-11-15T07:43:12;1.77;;;1.40;;
15764;SDS011;7983;50.744;7.086;2022-11-15T07:45:44;1.98;;;1.38;;
15764;SDS011;7983;50.744;7.086;2022-11-15T07:48:10;2.33;;;1.30;;
15764;SDS011;7983;50.744;7.086;2022-11-15T07:50:42;1.65;;;1.35;;
15764;SDS011;7983;50.744;7.086;2022-11-15T07:53:08;1.63;;;1.42;;
15764;SDS011;7983;50.744;7.086;2022-11-15T07:55:37;1.52;;;1.38;;
15764;SDS011;7983;50.744;7.086;2022-11-15T07:58:07;3.17;;;1.40;;
15764;SDS011;7983;50.744;7.086;2022-11-15T08:00:37;2.17;;;1.27;;
15764;SDS011;7983;50.744;7.086;2022-11-15T08:03:13;2.10;;;1.48;;
15764;SDS011;7983;50.744;7.086;2022-11-15T08:05:41;1.60;;;1.48;;
15764;SDS011;7983;50.744;7.086;2022-11-15T08:08:08;2.17;;;1.38;;
15764;SDS011;7983;50.744;7.086;2022-11-15T08:10:35;1.60;;;1.30;;
15764;SDS011;7983;50.744;7.086;2022-11-15T08:13:06;3.03;;;1.55;;
15764;SDS011;7983;50.744;7.086;2022-11-15T08:15:36;2.30;;;1.45;;
15764;SDS011;7983;50.744;7.086;2022-11-15T08:18:05;1.92;;;1.40;;
15764;SDS011;7983;50.744;7.086;2022-11-15T08:20:35;2.13;;;1.50;;
15764;SDS011;7983;50.744;7.086;2022-11-15T08:23:01;1.83;;;1.50;;
15764;SDS011;7983;50.744;7.086;2022-11-15T08:25:32;2.03;;;1.48;;
15764;SDS011;7983;50.744;7.086;2022-11-15T08:27:59;2.58;;;1.27;;
15764;SDS011;7983;50.744;7.086;2022-11-15T08:30:29;2.55;;;1.40;;
15764;SDS011;7983;50.744;7.086;2022-11-15T08:32:56;1.58;;;1.48;;
15764;SDS011;7983;50.744;7.086;2022-11-15T08:35:23;2.17;;;1.40;;
15764;SDS011;7983;50.744;7.086;2022-11-15T08:37:52;1.40;;;1.30;;
15764;SDS011;7983;50.744;7.086;2022-11-15T08:40:18;2.40;;;1.40;;
15764;SDS011;7983;50.744;7.086;2022-11-15T08:42:45;1.52;;;1.20;;
15764;SDS011;7983;50.744;7.086;2022-11-15T08:45:14;2.50;;;1.40;;
15764;SDS011;7983;50.744;7.086;2022-11-15T08:47:42;1.40;;;1.10;;
15764;SDS011;7983;50.744;7.086;2022-11-15T08:50:12;2.80;;;1.20;;
15764;SDS011;7983;50.744;7.086;2022-11-15T08:52:38;1.20;;;1.10;;
15764;SDS011;7983;50.744;7.086;2022-11-15T08:55:04;1.75;;;0.95;;
15764;SDS011;7983;50.744;7.086;2022-11-15T08:57:30;2.08;;;1.13;;
15764;SDS011;7983;50.744;7.086;2022-11-15T08:59:56;1.30;;;0.90;;
15764;SDS011;7983;50.744;7.086;2022-11-15T09:02:24;1.73;;;1.25;;
15764;SDS011;7983;50.744;7.086;2022-11-15T09:04:50;1.35;;;0.93;;
15764;SDS011;7983;50.744;7.086;2022-11-15T09:07:15;1.50;;;1.10;;
15764;SDS011;7983;50.744;7.086;2022-11-15T09:09:41;0.90;;;0.70;;
15764;SDS011;7983;50.744;7.086;2022-11-15T09:12:07;1.70;;;0.90;;
15764;SDS011;7983;50.744;7.086;2022-11-15T09:14:33;0.70;;;0.70;;
15764;SDS011;7983;50.744;7.086;2022-11-15T09:17:02;1.55;;;0.70;;
15764;SDS011;7983;50.744;7.086;2022-11-15T09:19:31;1.58;;;0.60;;
15764;SDS011;7983;50.744;7.086;2022-11-15T09:21:57;1.27;;;0.57;;
15764;SDS011;7983;50.744;7.086;2022-11-15T09:24:23;2.50;;;0.60;;
15764;SDS011;7983;50.744;7.086;2022-11-15T09:26:51;1.75;;;0.80;;
15764;SDS011;7983;50.744;7.086;2022-11-15T09:29:19;0.75;;;0.45;;
15764;SDS011;7983;50.744;7.086;2022-11-15T09:31:45;2.17;;;0.80;;
15764;SDS011;7983;50.744;7.086;2022-11-15T09:34:13;1.30;;;0.60;;
15764;SDS011;7983;50.744;7.086;2022-11-15T09:36:40;1.40;;;0.60;;
15764;SDS011;7983;50.744;7.086;2022-11-15T09:39:06;1.55;;;0.85;;
15764;SDS011;7983;50.744;7.086;2022-11-15T09:49:30;1.20;;;0.50;;
15764;SDS011;7983;50.744;7.086;2022-11-15T09:51:56;1.70;;;0.60;;
15764;SDS011;7983;50.744;7.086;2022-11-15T09:54:31;1.38;;;0.60;;
15764;SDS011;7983;50.744;7.086;2022-11-15T10:02:38;1.63;;;0.60;;
15764;SDS011;7983;50.744;7.086;2022-11-15T10:05:13;1.17;;;0.50;;
15764;SDS011;7983;50.744;7.086;2022-11-15T10:08:01;0.98;;;0.50;;
15764;SDS011;7983;50.744;7.086;2022-11-15T10:10:39;1.08;;;0.63;;
15764;SDS011;7983;50.744;7.086;2022-11-15T10:13:13;2.08;;;0.60;;
15764;SDS011;7983;50.744;7.086;2022-11-15T10:15:47;0.90;;;0.50;;
15764;SDS011;7983;50.744;7.086;2022-11-15T10:18:27;1.20;;;0.63;;
15764;SDS011;7983;50.744;7.086;2022-11-15T10:21:12;0.90;;;0.55;;
15764;SDS011;7983;50.744;7.086;2022-11-15T10:23:42;1.08;;;0.50;;
15764;SDS011;7983;50.744;7.086;2022-11-15T10:26:11;0.65;;;0.47;;
15764;SDS011;7983;50.744;7.086;2022-11-15T10:28:42;2.10;;;0.68;;
15764;SDS011;7983;50.744;7.086;2022-11-15T10:31:26;0.65;;;0.50;;
15764;SDS011;7983;50.744;7.086;2022-11-15T10:34:03;0.82;;;0.55;;
15764;SDS011;7983;50.744;7.086;2022-11-15T10:36:45;1.20;;;0.60;;
15764;SDS011;7983;50.744;7.086;2022-11-15T10:39:18;2.63;;;0.63;;
15764;SDS011;7983;50.744;7.086;2022-11-15T10:41:44;1.15;;;0.60;;
15764;SDS011;7983;50.744;7.086;2022-11-15T10:44:11;1.25;;;0.70;;
15764;SDS011;7983;50.744;7.086;2022-11-15T10:49:27;1.40;;;0.63;;
15764;SDS011;7983;50.744;7.086;2022-11-15T10:52:36;0.80;;;0.57;;
15764;SDS011;7983;50.744;7.086;2022-11-15T10:57:32;1.17;;;0.60;;
15764;SDS011;7983;50.744;7.086;2022-11-15T11:00:06;1.38;;;0.68;;
15764;SDS011;7983;50.744;7.086;2022-11-15T11:10:30;2.13;;;0.75;;
15764;SDS011;7983;50.744;7.086;2022-11-15T11:13:10;1.42;;;0.60;;
15764;SDS011;7983;50.744;7.086;2022-11-15T11:15:47;1.38;;;0.60;;
15764;SDS011;7983;50.744;7.086;2022-11-15T11:18:28;1.92;;;0.73;;
15764;SDS011;7983;50.744;7.086;2022-11-15T11:21:18;4.40;;;0.68;;
15764;SDS011;7983;50.744;7.086;2022-11-15T11:24:08;1.42;;;0.80;;
15764;SDS011;7983;50.744;7.086;2022-11-15T11:27:02;2.17;;;0.70;;
15764;SDS011;7983;50.744;7.086;2022-11-15T11:40:16;1.98;;;0.80;;
15764;SDS011;7983;50.744;7.086;2022-11-15T11:50:38;0.70;;;0.60;;
15764;SDS011;7983;50.744;7.086;2022-11-15T11:53:10;1.20;;;0.60;;
15764;SDS011;7983;50.744;7.086;2022-11-15T11:55:53;1.98;;;0.93;;
15764;SDS011;7983;50.744;7.086;2022-11-15T11:58:34;1.75;;;0.80;;
15764;SDS011;7983;50.744;7.086;2022-11-15T12:01:48;1.52;;;0.85;;
15764;SDS011;7983;50.744;7.086;2022-11-15T12:04:05;1.83;;;0.80;;
15764;SDS011;7983;50.744;7.086;2022-11-15T12:06:58;1.27;;;0.70;;
15764;SDS011;7983;50.744;7.086;2022-11-15T12:09:35;1.42;;;0.82;;
15764;SDS011;7983;50.744;7.086;2022-11-15T12:12:11;3.05;;;1.20;;
15764;SDS011;7983;50.744;7.086;2022-11-15T12:15:04;2.85;;;1.20;;
15764;SDS011;7983;50.744;7.086;2022-11-15T12:17:36;1.80;;;1.10;;
15764;SDS011;7983;50.744;7.086;2022-11-15T12:20:06;2.55;;;1.05;;
15764;SDS011;7983;50.744;7.086;2022-11-15T12:30:52;1.73;;;1.10;;
15764;SDS011;7983;50.744;7.086;2022-11-15T12:33:29;1.90;;;1.10;;
15764;SDS011;7983;50.744;7.086;2022-11-15T12:36:02;1.92;;;1.15;;
15764;SDS011;7983;50.744;7.086;2022-11-15T12:41:29;2.15;;;1.27;;
15764;SDS011;7983;50.744;7.086;2022-11-15T12:43:59;3.15;;;1.40;;
15764;SDS011;7983;50.744;7.086;2022-11-15T12:48:57;1.75;;;1.13;;
15764;SDS011;7983;50.744;7.086;2022-11-15T12:52:07;3.40;;;1.50;;
15764;SDS011;7983;50.744;7.086;2022-11-15T13:04:42;1.33;;;1.20;;
15764;SDS011;7983;50.744;7.086;2022-11-15T13:07:08;3.20;;;1.45;;
15764;SDS011;7983;50.744;7.086;2022-11-15T13:09:59;3.65;;;1.50;;
15764;SDS011;7983;50.744;7.086;2022-11-15T13:15:00;1.73;;;1.40;;
15764;SDS011;7983;50.744;7.086;2022-11-15T13:17:50;1.83;;;1.40;;
15764;SDS011;7983;50.744;7.086;2022-11-15T13:28:01;2.65;;;1.50;;
15764;SDS011;7983;50.744;7.086;2022-11-15T13:30:34;2.50;;;1.25;;
15764;SDS011;7983;50.744;7.086;2022-11-15T13:33:07;2.95;;;1.63;;
15764;SDS011;7983;50.744;7.086;2022-11-15T13:35:41;2.17;;;1.42;;
15764;SDS011;7983;50.744;7.086;2022-11-15T13:38:17;3.08;;;1.40;;
15764;SDS011;7983;50.744;7.086;2022-11-15T13:40:55;2.35;;;1.50;;
15764;SDS011;7983;50.744;7.086;2022-11-15T13:48:39;4.03;;;2.20;;
15764;SDS011;7983;50.744;7.086;2022-11-15T13:56:40;3.80;;;1.60;;
15764;SDS011;7983;50.744;7.086;2022-11-15T13:59:24;3.00;;;1.50;;
15764;SDS011;7983;50.744;7.086;2022-11-15T14:01:55;3.53;;;1.50;;
15764;SDS011;7983;50.744;7.086;2022-11-15T14:04:23;2.70;;;1.50;;
15764;SDS011;7983;50.744;7.086;2022-11-15T14:06:55;1.63;;;1.20;;
15764;SDS011;7983;50.744;7.086;2022-11-15T14:11:57;1.98;;;1.27;;
15764;SDS011;7983;50.744;7.086;2022-11-15T14:14:26;1.50;;;1.20;;
15764;SDS011;7983;50.744;7.086;2022-11-15T14:16:57;2.17;;;1.33;;
15764;SDS011;7983;50.744;7.086;2022-11-15T14:24:43;2.83;;;1.20;;
15764;SDS011;7983;50.744;7.086;2022-11-15T14:27:17;2.38;;;1.42;;
15764;SDS011;7983;50.744;7.086;2022-11-15T14:29:55;2.58;;;1.05;;
15764;SDS011;7983;50.744;7.086;2022-11-15T14:32:25;2.20;;;1.10;;
15764;SDS011;7983;50.744;7.086;2022-11-15T14:34:57;3.17;;;1.20;;
15764;SDS011;7983;50.744;7.086;2022-11-15T14:37:25;2.42;;;1.65;;
15764;SDS011;7983;50.744;7.086;2022-11-15T14:39:53;4.15;;;1.23;;
15764;SDS011;7983;50.744;7.086;2022-11-15T14:42:22;1.60;;;1.10;;
15764;SDS011;7983;50.744;7.086;2022-11-15T14:44:48;2.00;;;1.10;;
15764;SDS011;7983;50.744;7.086;2022-11-15T14:47:17;1.55;;;1.20;;
15764;SDS011;7983;50.744;7.086;2022-11-15T14:49:43;2.55;;;1.48;;
15764;SDS011;7983;50.744;7.086;2022-11-15T14:54:55;1.25;;;1.10;;
15764;SDS011;7983;50.744;7.086;2022-11-15T14:57:23;1.92;;;1.00;;
15764;SDS011;7983;50.744;7.086;2022-11-15T14:59:51;1.48;;;0.90;;
15764;SDS011;7983;50.744;7.086;2022-11-15T15:02:21;2.28;;;1.42;;
15764;SDS011;7983;50.744;7.086;2022-11-15T15:04:50;1.40;;;1.10;;
15764;SDS011;7983;50.744;7.086;2022-11-15T15:07:19;1.45;;;1.08;;
15764;SDS011;7983;50.744;7.086;2022-11-15T15:09:45;1.17;;;0.90;;
15764;SDS011;7983;50.744;7.086;2022-11-15T15:12:15;2.33;;;1.15;;
15764;SDS011;7983;50.744;7.086;2022-11-15T15:14:41;1.55;;;1.00;;
15764;SDS011;7983;50.744;7.086;2022-11-15T15:17:07;1.63;;;1.02;;
15764;SDS011;7983;50.744;7.086;2022-11-15T15:19:32;1.80;;;1.23;;
15764;SDS011;7983;50.744;7.086;2022-11-15T15:21:58;2.40;;;1.20;;
15764;SDS011;7983;50.744;7.086;2022-11-15T15:24:29;2.70;;;1.23;;
15764;SDS011;7983;50.744;7.086;2022-11-15T15:26:54;2.75;;;1.38;;
15764;SDS011;7983;50.744;7.086;2022-11-15T15:29:20;1.25;;;1.15;;
15764;SDS011;7983;50.744;7.086;2022-11-15T15:31:46;1.80;;;1.40;;
15764;SDS011;7983;50.744;7.086;2022-11-15T15:34:11;1.58;;;1.10;;
15764;SDS011;7983;50.744;7.086;2022-11-15T15:36:37;2.50;;;1.20;;
15764;SDS011;7983;50.744;7.086;2022-11-15T15:39:03;1.77;;;1.13;;
15764;SDS011;7983;50.744;7.086;2022-11-15T15:41:33;2.35;;;1.40;;
15764;SDS011;7983;50.744;7.086;2022-11-15T15:43:59;1.63;;;1.20;;
15764;SDS011;7983;50.744;7.086;2022-11-15T15:46:29;1.85;;;1.45;;
15764;SDS011;7983;50.744;7.086;2022-11-15T15:48:58;1.77;;;1.30;;
15764;SDS011;7983;50.744;7.086;2022-11-15T15:51:26;1.50;;;1.30;;
15764;SDS011;7983;50.744;7.086;2022-11-15T15:53:52;3.55;;;1.30;;
15764;SDS011;7983;50.744;7.086;2022-11-15T15:56:21;1.70;;;1.40;;
15764;SDS011;7983;50.744;7.086;2022-11-15T15:58:47;1.40;;;1.23;;
15764;SDS011;7983;50.744;7.086;2022-11-15T16:01:13;3.67;;;1.30;;
15764;SDS011;7983;50.744;7.086;2022-11-15T16:03:40;3.55;;;1.40;;
15764;SDS011;7983;50.744;7.086;2022-11-15T16:09:05;3.13;;;1.40;;
15764;SDS011;7983;50.744;7.086;2022-11-15T16:11:33;1.33;;;1.10;;
15764;SDS011;7983;50.744;7.086;2022-11-15T16:13:59;1.80;;;1.17;;
15764;SDS011;7983;50.744;7.086;2022-11-15T16:16:27;2.35;;;1.40;;
15764;SDS011;7983;50.744;7.086;2022-11-15T16:18:57;2.28;;;1.27;;
15764;SDS011;7983;50.744;7.086;2022-11-15T16:21:23;2.90;;;1.25;;
15764;SDS011;7983;50.744;7.086;2022-11-15T16:23:48;1.58;;;1.10;;
15764;SDS011;7983;50.744;7.086;2022-11-15T16:26:21;2.95;;;1.30;;
15764;SDS011;7983;50.744;7.086;2022-11-15T16:28:53;1.77;;;1.27;;
15764;SDS011;7983;50.744;7.086;2022-11-15T16:31:19;1.48;;;1.17;;
15764;SDS011;7983;50.744;7.086;2022-11-15T16:33:48;1.63;;;1.30;;
15764;SDS011;7983;50.744;7.086;2022-11-15T16:38:48;1.98;;;1.33;;
15764;SDS011;7983;50.744;7.086;2022-11-15T16:41:15;1.63;;;1.30;;
15764;SDS011;7983;50.744;7.086;2022-11-15T16:43:44;1.40;;;1.10;;
15764;SDS011;7983;50.744;7.086;2022-11-15T16:46:20;1.67;;;1.30;;
15764;SDS011;7983;50.744;7.086;2022-11-15T16:48:52;1.55;;;1.20;;
15764;SDS011;7983;50.744;7.086;2022-11-15T16:51:19;2.75;;;1.50;;
15764;SDS011;7983;50.744;7.086;2022-11-15T16:53:44;1.90;;;1.40;;
15764;SDS011;7983;50.744;7.086;2022-11-15T16:56:24;1.63;;;1.30;;
15764;SDS011;7983;50.744;7.086;2022-11-15T16:58:50;1.80;;;1.33;;
15764;SDS011;7983;50.744;7.086;2022-11-15T17:01:26;1.70;;;1.40;;
15764;SDS011;7983;50.744;7.086;2022-11-15T17:03:53;1.90;;;1.50;;
15764;SDS011;7983;50.744;7.086;2022-11-15T17:06:20;1.40;;;1.20;;
15764;SDS011;7983;50.744;7.086;2022-11-15T17:08:51;2.17;;;1.70;;
15764;SDS011;7983;50.744;7.086;2022-11-15T17:11:21;2.20;;;1.63;;
15764;SDS011;7983;50.744;7.086;2022-11-15T17:13:49;1.75;;;1.58;;
15764;SDS011;7983;50.744;7.086;2022-11-15T17:16:17;2.17;;;1.60;;
15764;SDS011;7983;50.744;7.086;2022-11-15T17:18:43;2.42;;;1.20;;
15764;SDS011;7983;50.744;7.086;2022-11-15T17:21:13;2.70;;;1.70;;
15764;SDS011;7983;50.744;7.086;2022-11-15T17:23:46;1.98;;;1.60;;
15764;SDS011;7983;50.744;7.086;2022-11-15T17:26:13;2.15;;;1.50;;
15764;SDS011;7983;50.744;7.086;2022-11-15T17:28:39;2.00;;;1.60;;
15764;SDS011;7983;50.744;7.086;2022-11-15T17:31:09;1.80;;;1.63;;
15764;SDS011;7983;50.744;7.086;2022-11-15T17:33:36;1.92;;;1.60;;
15764;SDS011;7983;50.744;7.086;2022-11-15T17:36:04;3.72;;;1.90;;
15764;SDS011;7983;50.744;7.086;2022-11-15T17:38:31;1.92;;;1.60;;
15764;SDS011;7983;50.744;7.086;2022-11-15T17:43:27;2.38;;;1.50;;
15764;SDS011;7983;50.744;7.086;2022-11-15T17:45:57;4.95;;;3.30;;